Time;durP1;ratioP1;P1;durP2;ratioP2;P2;SDS_P1;SDS_P2;PMS_P1;PMS_P2;Temp;Humidity;BMP_temperature;BMP_pressure;BME280_temperature;BME280_humidity;BME280_pressure;Samples;Min_cycle;Max_cycle;Signal;HPM_P1;HPM_P2
2022/05/16 00:00:35;;;;;;;;;7.50;6.75;;;;;21.94;63.52;100996.38;5063136;28;45378;-53
2022/05/16 00:03:03;;;;;;;;;6.25;6.25;;;;;21.93;63.32;100992.00;5063538;28;45327;-52
2022/05/16 00:05:29;;;;;;;;;9.00;8.00;;;;;21.93;63.35;100991.16;5063338;28;45524;-51
2022/05/16 00:07:54;;;;;;;;;8.00;7.50;;;;;21.91;63.62;100988.66;5062715;28;45914;-52
2022/05/16 00:10:21;;;;;;;;;8.00;7.75;;;;;21.92;63.60;101001.06;5063137;28;45396;-52
2022/05/16 00:12:46;;;;;;;;;8.00;6.75;;;;;21.92;63.63;101011.78;5063392;28;45318;-51
2022/05/16 00:15:15;;;;;;;;;9.25;6.50;;;;;21.93;63.46;101018.00;5062943;28;45461;-52
2022/05/16 00:17:41;;;;;;;;;10.00;10.00;;;;;21.91;63.84;101028.88;5063153;28;45374;-53
2022/05/16 00:20:08;;;;;;;;;6.75;6.50;;;;;21.90;64.42;101043.31;5069383;27;45242;-52
2022/05/16 00:22:33;;;;;;;;;15.25;11.00;;;;;21.88;64.72;101042.63;5071802;28;45219;-50
2022/05/16 00:24:59;;;;;;;;;9.25;6.50;;;;;21.87;64.02;101035.56;5073706;28;45376;-53
2022/05/16 00:27:24;;;;;;;;;9.25;7.75;;;;;21.88;64.12;101004.19;5071293;28;45640;-51
2022/05/16 00:29:50;;;;;;;;;7.00;6.00;;;;;21.86;64.25;100985.59;5070471;28;45302;-52
2022/05/16 00:32:17;;;;;;;;;6.00;5.75;;;;;21.83;63.32;100971.66;5071812;28;45253;-52
2022/05/16 00:34:43;;;;;;;;;5.50;5.50;;;;;21.77;63.23;100965.09;5073574;28;46444;-53
2022/05/16 00:37:08;;;;;;;;;4.25;4.25;;;;;21.73;63.03;100971.78;5072458;28;45468;-54
2022/05/16 00:39:34;;;;;;;;;8.50;5.75;;;;;21.67;63.56;100978.59;5071451;28;45521;-51
2022/05/16 00:42:01;;;;;;;;;5.25;3.75;;;;;21.60;63.56;100990.97;5073708;28;45458;-52
2022/05/16 00:44:28;;;;;;;;;4.00;4.00;;;;;21.54;63.67;101001.47;5071241;28;45411;-54
2022/05/16 00:46:53;;;;;;;;;4.25;4.25;;;;;21.52;63.41;100998.09;5070659;28;45895;-52
2022/05/16 00:49:29;;;;;;;;;8.75;6.00;;;;;21.50;63.88;100978.66;5069343;28;45437;-51
2022/05/16 00:52:13;;;;;;;;;8.25;5.25;;;;;21.46;63.91;100987.00;5071505;28;45247;-53
2022/05/16 00:54:44;;;;;;;;;6.25;3.50;;;;;21.45;64.05;100984.47;5071323;28;45210;-54
2022/05/16 00:57:13;;;;;;;;;5.50;3.75;;;;;21.42;64.46;100985.63;5068601;28;45385;-53
2022/05/16 01:00:02;;;;;;;;;6.75;6.50;;;;;21.37;64.87;100974.53;5070469;28;45225;-53
2022/05/16 01:05:14;;;;;;;;;7.25;5.50;;;;;21.36;64.34;100972.00;5070164;28;45319;-54
2022/05/16 01:07:43;;;;;;;;;8.00;6.50;;;;;21.33;64.63;100962.44;5071913;28;46086;-53
2022/05/16 01:10:13;;;;;;;;;6.50;5.75;;;;;21.30;65.24;100960.06;5068124;28;45278;-52
2022/05/16 01:12:42;;;;;;;;;6.00;5.00;;;;;21.27;65.07;100959.50;5070863;28;45480;-53
2022/05/16 01:15:14;;;;;;;;;8.00;6.25;;;;;21.28;65.10;100958.53;5067856;28;45602;-51
2022/05/16 01:17:40;;;;;;;;;7.00;6.00;;;;;21.29;64.97;100962.91;5072666;28;45248;-53
2022/05/16 01:20:08;;;;;;;;;6.50;4.25;;;;;21.30;64.94;100967.25;5069880;27;45240;-53
2022/05/16 01:22:41;;;;;;;;;6.00;6.00;;;;;21.29;65.25;100969.09;5071723;28;45207;-50
2022/05/16 01:25:15;;;;;;;;;10.00;7.25;;;;;21.30;65.49;100961.91;5068403;28;45427;-52
2022/05/16 01:27:58;;;;;;;;;7.25;6.00;;;;;21.24;65.06;100957.97;5070829;28;45896;-49
2022/05/16 01:30:28;;;;;;;;;5.25;5.25;;;;;21.24;65.61;100965.16;5070884;28;45381;-50
2022/05/16 01:32:54;;;;;;;;;5.75;4.00;;;;;21.19;65.45;100971.84;5071270;28;45320;-54
2022/05/16 01:35:24;;;;;;;;;5.00;4.50;;;;;21.17;64.74;100967.59;5070568;28;45220;-66
2022/05/16 01:40:34;;;;;;;;;5.00;4.75;;;;;21.11;64.63;100969.09;5069626;28;45466;-61
2022/05/16 01:43:00;;;;;;;;;5.75;3.75;;;;;21.10;64.93;100975.44;5072371;28;45493;-61
2022/05/16 01:45:26;;;;;;;;;5.00;5.00;;;;;21.08;64.85;100989.97;5070903;28;45371;-61
2022/05/16 01:47:51;;;;;;;;;5.75;5.75;;;;;21.05;64.68;100993.78;5068547;28;46068;-60
2022/05/16 01:50:17;;;;;;;;;6.50;5.00;;;;;21.05;64.93;101001.84;5071189;28;45414;-61
2022/05/16 01:52:42;;;;;;;;;8.25;6.50;;;;;21.06;65.24;100998.16;5071769;28;45377;-60
2022/05/16 01:55:11;;;;;;;;;5.25;5.25;;;;;21.06;65.30;100981.25;5068098;28;45479;-61
2022/05/16 01:57:36;;;;;;;;;6.50;4.75;;;;;21.08;64.78;100984.59;5069839;28;45385;-61
2022/05/16 02:00:04;;;;;;;;;6.00;6.00;;;;;21.12;65.01;100980.63;5068631;28;45319;-60
2022/05/16 02:02:29;;;;;;;;;7.25;5.50;;;;;21.16;64.85;100984.69;5069352;28;45287;-61
2022/05/16 02:04:54;;;;;;;;;5.00;1.00;;;;;21.15;64.58;100989.19;5071434;28;45565;-60
2022/05/16 02:07:20;;;;;;;;;4.00;4.00;;;;;21.17;64.76;100989.91;5071241;28;46112;-61
2022/05/16 02:09:46;;;;;;;;;7.50;5.00;;;;;21.18;63.99;100994.28;5070262;28;45294;-61
2022/05/16 02:12:12;;;;;;;;;6.00;5.50;;;;;21.23;64.34;100995.63;5069570;28;45297;-61
2022/05/16 02:14:38;;;;;;;;;7.00;6.00;;;;;21.22;64.03;100988.59;5071178;28;45616;-60
2022/05/16 02:17:04;;;;;;;;;5.00;3.25;;;;;21.23;64.42;100996.47;5072321;28;45910;-61
2022/05/16 02:19:30;;;;;;;;;6.75;6.50;;;;;21.27;63.93;100991.66;5070269;28;45315;-60
2022/05/16 02:24:40;;;;;;;;;4.75;4.25;;;;;21.28;63.87;100986.19;5068204;28;45321;-60
2022/05/16 02:27:11;;;;;;;;;9.50;8.50;;;;;21.31;63.63;100985.84;5070971;28;45291;-60
2022/05/16 02:29:37;;;;;;;;;7.00;6.00;;;;;21.34;63.36;100996.28;5069620;28;45448;-60
2022/05/16 02:32:04;;;;;;;;;6.25;6.25;;;;;21.34;63.28;100992.75;5069646;28;45527;-61
2022/05/16 02:34:30;;;;;;;;;7.50;6.75;;;;;21.36;63.08;100980.88;5067182;28;45416;-60
2022/05/16 02:36:55;;;;;;;;;9.25;6.00;;;;;21.38;63.75;100980.72;5071659;28;45301;-60
2022/05/16 02:39:22;;;;;;;;;6.50;5.50;;;;;21.38;63.08;101003.00;5069506;28;45355;-60
2022/05/16 02:41:47;;;;;;;;;10.00;8.00;;;;;21.40;62.95;101002.84;5070785;28;45558;-60
2022/05/16 02:44:14;;;;;;;;;7.75;7.25;;;;;21.40;62.75;101002.84;5068729;28;45502;-61
2022/05/16 02:46:41;;;;;;;;;10.00;8.00;;;;;21.43;63.14;101005.22;5068863;28;45537;-61
2022/05/16 02:49:07;;;;;;;;;8.75;8.50;;;;;21.43;62.96;101007.91;5070778;28;45339;-61
2022/05/16 02:51:33;;;;;;;;;6.50;5.75;;;;;21.41;62.93;101008.06;5070849;28;45507;-61
2022/05/16 02:53:59;;;;;;;;;8.25;7.00;;;;;21.40;62.57;101003.69;5068869;28;45243;-61
2022/05/16 02:56:25;;;;;;;;;6.00;6.00;;;;;21.37;62.97;101006.69;5068950;28;45394;-61
2022/05/16 02:58:50;;;;;;;;;7.00;6.75;;;;;21.37;62.74;101013.88;5069150;27;45311;-61
2022/05/16 03:01:16;;;;;;;;;5.50;4.50;;;;;21.36;63.02;101018.41;5071435;28;45282;-61
2022/05/16 03:03:42;;;;;;;;;10.75;9.00;;;;;21.38;63.15;101019.09;5068187;28;45409;-61
2022/05/16 03:06:08;;;;;;;;;10.50;7.00;;;;;21.39;62.89;101020.75;5069499;28;46054;-61
2022/05/16 03:08:35;;;;;;;;;7.50;7.50;;;;;21.37;62.68;101021.91;5069209;27;46688;-61
2022/05/16 03:11:01;;;;;;;;;10.25;8.25;;;;;21.35;62.60;101008.69;5071038;28;45451;-61
2022/05/16 03:13:27;;;;;;;;;9.50;9.25;;;;;21.35;62.57;101022.09;5068480;28;45448;-61
2022/05/16 03:15:53;;;;;;;;;10.75;10.75;;;;;21.31;62.53;101014.50;5068964;28;46073;-61
2022/05/16 03:18:18;;;;;;;;;10.50;8.25;;;;;21.30;62.68;101002.94;5071581;28;45371;-61
2022/05/16 03:20:44;;;;;;;;;8.25;8.25;;;;;21.29;63.08;101022.69;5071335;27;45463;-61
2022/05/16 03:23:09;;;;;;;;;8.75;8.75;;;;;21.28;62.96;101026.38;5066628;28;45490;-61
2022/05/16 03:25:35;;;;;;;;;10.75;10.00;;;;;21.25;62.94;101034.69;5069549;28;46163;-61
2022/05/16 03:28:01;;;;;;;;;13.00;11.25;;;;;21.25;62.90;101040.06;5069276;28;45156;-61
2022/05/16 03:30:28;;;;;;;;;12.25;11.00;;;;;21.24;62.82;101037.50;5070764;27;45516;-60
2022/05/16 03:32:54;;;;;;;;;12.00;10.00;;;;;21.23;62.95;101047.38;5070553;28;45412;-61
2022/05/16 03:35:20;;;;;;;;;12.75;10.50;;;;;21.23;62.96;101033.97;5070140;28;45390;-60
2022/05/16 03:37:45;;;;;;;;;11.25;10.75;;;;;21.22;63.36;101036.81;5068377;28;45351;-61
2022/05/16 03:42:55;;;;;;;;;15.75;12.00;;;;;21.22;63.17;101010.03;5070451;28;45457;-61
2022/05/16 03:45:21;;;;;;;;;13.25;10.75;;;;;21.21;63.23;101009.19;5073098;28;45584;-61
2022/05/16 03:47:47;;;;;;;;;14.50;11.50;;;;;21.19;63.20;101011.19;5070230;28;45249;-61
2022/05/16 03:50:13;;;;;;;;;14.00;12.75;;;;;21.19;63.59;101033.47;5072393;27;45211;-60
2022/05/16 03:52:39;;;;;;;;;14.50;11.50;;;;;21.21;63.13;101038.66;5074268;28;45248;-60
2022/05/16 03:55:07;;;;;;;;;12.50;12.50;;;;;21.22;63.35;101055.56;5071697;28;46916;-60
2022/05/16 03:57:33;;;;;;;;;16.25;12.50;;;;;21.20;63.60;101055.72;5071483;28;45378;-61
2022/05/16 03:59:58;;;;;;;;;12.00;11.00;;;;;21.19;63.55;101064.78;5072399;27;45347;-60
2022/05/16 04:02:24;;;;;;;;;14.00;11.75;;;;;21.18;64.06;101069.28;5072202;28;45479;-60
2022/05/16 04:04:50;;;;;;;;;15.75;13.75;;;;;21.18;63.25;101071.97;5073618;28;46530;-60
2022/05/16 04:07:15;;;;;;;;;14.50;13.75;;;;;21.18;63.34;101081.84;5073614;28;45430;-61
2022/05/16 04:09:41;;;;;;;;;14.00;13.00;;;;;21.16;63.56;101081.97;5073199;28;45428;-60
2022/05/16 04:12:07;;;;;;;;;16.75;13.00;;;;;21.16;63.50;101083.81;5070083;28;45376;-61
2022/05/16 04:14:33;;;;;;;;;21.00;17.50;;;;;21.12;63.53;101077.91;5071607;28;45511;-60
2022/05/16 04:16:58;;;;;;;;;18.75;14.25;;;;;21.10;63.70;101093.31;5073633;28;45416;-61
2022/05/16 04:19:24;;;;;;;;;14.50;13.75;;;;;21.10;63.57;101095.16;5073613;27;45468;-60
2022/05/16 04:21:50;;;;;;;;;13.00;12.50;;;;;21.10;63.75;101095.16;5068946;28;45176;-61
2022/05/16 04:24:15;;;;;;;;;19.00;15.00;;;;;21.11;63.66;101097.66;5072265;28;45557;-60
2022/05/16 04:26:42;;;;;;;;;17.00;14.50;;;;;21.10;63.22;101109.38;5071518;28;45292;-60
2022/05/16 04:29:07;;;;;;;;;19.25;13.75;;;;;21.10;63.55;101120.09;5073129;28;45321;-60
2022/05/16 04:31:33;;;;;;;;;15.00;13.00;;;;;21.11;63.81;101118.25;5071969;28;45548;-60
2022/05/16 04:33:58;;;;;;;;;16.25;13.50;;;;;21.13;63.61;101124.31;5072105;28;45417;-61
2022/05/16 04:36:24;;;;;;;;;15.25;14.00;;;;;21.13;63.76;101122.47;5071551;28;45315;-60
2022/05/16 04:38:49;;;;;;;;;16.50;13.00;;;;;21.13;63.17;101125.16;5072649;28;45298;-60
2022/05/16 04:43:59;;;;;;;;;17.00;14.75;;;;;21.17;63.70;101134.59;5070183;28;45752;-60
2022/05/16 04:46:24;;;;;;;;;18.25;17.25;;;;;21.18;63.54;101146.13;5071804;28;45383;-61
2022/05/16 04:48:50;;;;;;;;;19.25;15.25;;;;;21.18;63.74;101163.06;5071015;28;45298;-61
2022/05/16 04:51:16;;;;;;;;;21.50;18.00;;;;;21.16;63.77;101165.03;5074155;28;45489;-61
2022/05/16 04:53:41;;;;;;;;;15.00;11.50;;;;;21.16;63.68;101178.41;5071786;28;45977;-60
2022/05/16 04:56:08;;;;;;;;;13.50;13.50;;;;;21.14;63.70;101184.94;5072400;28;45302;-60
2022/05/16 04:58:34;;;;;;;;;13.50;13.50;;;;;21.13;63.95;101175.19;5070881;28;45268;-60
2022/05/16 05:01:01;;;;;;;;;13.50;13.00;;;;;21.13;63.47;101196.63;5072413;28;45165;-60
2022/05/16 05:03:26;;;;;;;;;21.50;16.00;;;;;21.09;63.47;101208.63;5071032;28;46370;-61
2022/05/16 05:05:53;;;;;;;;;17.75;16.00;;;;;21.07;63.93;101215.97;5075108;28;45413;-61
2022/05/16 05:08:18;;;;;;;;;17.25;16.50;;;;;21.07;63.79;101222.16;5062320;28;45377;-61
2022/05/16 05:16:19;;;;;;;;;18.75;14.25;;;;;21.08;63.60;101228.38;5062227;28;45331;-60
2022/05/16 05:18:44;;;;;;;;;15.75;15.75;;;;;21.07;63.93;101229.38;5062067;28;46826;-60
2022/05/16 05:21:11;;;;;;;;;16.75;16.25;;;;;21.06;64.20;101236.56;5064350;28;45241;-60
2022/05/16 05:23:39;;;;;;;;;19.00;17.50;;;;;21.08;64.01;101237.25;5064545;28;45405;-60
2022/05/16 05:26:06;;;;;;;;;20.00;17.75;;;;;21.10;63.14;101237.97;5062199;28;45295;-61
2022/05/16 05:28:33;;;;;;;;;20.00;19.00;;;;;21.12;63.24;101243.19;5064542;27;45279;-61
2022/05/16 05:30:59;;;;;;;;;21.75;19.75;;;;;21.11;62.98;101236.13;5075550;28;45499;-61
2022/05/16 05:33:25;;;;;;;;;18.50;18.50;;;;;21.11;63.11;101238.81;5071368;28;45207;-61
2022/05/16 05:35:50;;;;;;;;;16.50;16.25;;;;;21.12;62.81;101233.31;5070530;28;45311;-56
2022/05/16 05:38:17;;;;;;;;;21.75;19.25;;;;;21.09;62.62;101238.97;5071279;28;45216;-53
2022/05/16 05:40:42;;;;;;;;;21.25;20.00;;;;;21.03;63.09;101244.91;5071344;28;45460;-49
2022/05/16 05:43:08;;;;;;;;;19.25;17.25;;;;;21.02;62.64;101259.28;5072018;28;45956;-51
2022/05/16 05:45:35;;;;;;;;;20.75;19.50;;;;;20.99;63.10;101250.69;5070131;28;45340;-52
2022/05/16 05:48:01;;;;;;;;;19.75;16.75;;;;;20.99;62.50;101258.72;5061872;28;45354;-54
2022/05/16 05:50:27;;;;;;;;;25.00;17.50;;;;;21.00;62.51;101269.28;5061648;28;45448;-54
2022/05/16 05:52:53;;;;;;;;;20.00;17.00;;;;;21.01;62.62;101267.44;5061117;28;45250;-54
2022/05/16 05:55:19;;;;;;;;;19.75;17.75;;;;;20.98;62.01;101276.63;5061226;28;45344;-53
2022/05/16 05:57:44;;;;;;;;;23.50;17.75;;;;;20.99;61.92;101288.19;5061317;28;45224;-55
2022/05/16 06:00:12;;;;;;;;;19.25;18.00;;;;;21.00;61.85;101300.59;5061392;28;45571;-51
2022/05/16 06:02:40;;;;;;;;;19.00;17.50;;;;;21.00;61.49;101301.44;5066280;28;45387;-54
2022/05/16 06:05:12;;;;;;;;;18.50;16.75;;;;;21.03;61.92;101306.50;5068974;27;45339;-53
2022/05/16 06:07:37;;;;;;;;;20.75;15.50;;;;;21.01;61.33;101302.28;5061307;28;45325;-54
2022/05/16 06:10:04;;;;;;;;;19.50;14.00;;;;;20.99;61.73;101306.94;5061212;28;45561;-57
2022/05/16 06:12:31;;;;;;;;;18.25;16.00;;;;;21.02;61.57;101315.53;5060826;28;46105;-53
2022/05/16 06:14:56;;;;;;;;;16.25;15.25;;;;;21.07;61.58;101315.94;5072579;28;45385;-55
2022/05/16 06:17:22;;;;;;;;;19.00;17.00;;;;;21.11;61.43;101319.19;5062040;28;45419;-53
2022/05/16 06:19:47;;;;;;;;;14.25;13.75;;;;;21.12;61.63;101316.34;5065077;28;45438;-54
2022/05/16 06:22:13;;;;;;;;;25.00;19.25;;;;;21.15;61.29;101328.59;5060557;28;45372;-52
2022/05/16 06:27:23;;;;;;;;;18.75;17.75;;;;;21.13;61.69;101327.91;5061064;28;45448;-51
2022/05/16 06:29:49;;;;;;;;;22.25;16.00;;;;;21.09;61.62;101338.09;5059889;28;45466;-52
2022/05/16 06:32:14;;;;;;;;;20.00;16.75;;;;;21.10;61.58;101330.91;5059664;28;45358;-50
2022/05/16 06:34:40;;;;;;;;;18.00;18.00;;;;;21.07;61.56;101341.88;5060458;28;45177;-53
2022/05/16 06:37:05;;;;;;;;;19.25;18.75;;;;;21.08;61.77;101346.25;5060948;28;45334;-52
2022/05/16 06:39:31;;;;;;;;;20.00;17.50;;;;;21.09;61.82;101353.28;5061995;28;45338;-54
2022/05/16 06:41:56;;;;;;;;;20.00;16.50;;;;;21.12;61.61;101361.06;5060540;28;46349;-54
2022/05/16 06:44:22;;;;;;;;;19.50;16.00;;;;;21.12;60.95;101358.38;5060436;28;45342;-53
2022/05/16 06:46:48;;;;;;;;;18.75;15.00;;;;;21.10;60.29;101360.38;5061097;28;45318;-52
2022/05/16 06:49:13;;;;;;;;;15.75;14.25;;;;;21.06;60.09;101366.97;5060551;28;45259;-53
2022/05/16 06:51:40;;;;;;;;;18.00;14.75;;;;;21.03;60.21;101368.13;5060284;28;45334;-54
2022/05/16 06:54:06;;;;;;;;;19.75;14.00;;;;;21.05;60.32;101370.66;5061934;28;45642;-54
2022/05/16 06:56:32;;;;;;;;;16.25;14.00;;;;;21.05;60.47;101374.19;5060357;28;45311;-55
2022/05/16 06:58:57;;;;;;;;;19.75;17.50;;;;;21.07;60.58;101390.09;5059710;28;45239;-56
2022/05/16 07:01:23;;;;;;;;;13.75;12.50;;;;;21.07;60.22;101398.97;5059674;28;45247;-54
2022/05/16 07:03:48;;;;;;;;;17.50;16.50;;;;;21.08;59.89;101389.09;5059318;28;45367;-56
2022/05/16 07:06:14;;;;;;;;;17.75;13.00;;;;;21.09;60.12;101401.50;5059908;28;45341;-55
2022/05/16 07:08:41;;;;;;;;;12.50;11.25;;;;;21.11;59.49;101411.13;5060278;28;45431;-55
2022/05/16 07:11:08;;;;;;;;;14.00;11.50;;;;;21.11;59.63;101410.28;5060509;28;45368;-56
2022/05/16 07:13:34;;;;;;;;;12.00;11.00;;;;;21.14;59.45;101418.84;5060305;28;45327;-56
2022/05/16 07:16:00;;;;;;;;;14.50;12.25;;;;;21.16;59.36;101419.56;5060343;28;45368;-55
2022/05/16 07:18:27;;;;;;;;;11.50;9.75;;;;;21.18;59.14;101428.31;5063369;28;45235;-56
2022/05/16 07:20:53;;;;;;;;;13.75;12.00;;;;;21.19;59.10;101437.19;5064402;28;46091;-55
2022/05/16 07:23:19;;;;;;;;;14.00;12.00;;;;;21.20;58.87;101441.56;5067893;28;45338;-56
2022/05/16 07:28:46;;;;;;;;;11.00;10.50;;;;;21.16;58.16;101438.31;4981886;28;45362;-55
2022/05/16 07:31:11;;;;;;;;;12.00;11.25;;;;;21.11;58.22;101443.25;5046429;28;45350;-55
2022/05/16 07:33:37;;;;;;;;;16.75;15.50;;;;;21.12;58.00;101438.75;5063881;28;45414;-56
2022/05/16 07:36:04;;;;;;;;;11.00;9.25;;;;;21.14;58.27;101451.00;5069436;28;45342;-55
2022/05/16 07:38:29;;;;;;;;;10.50;10.50;;;;;21.20;58.50;101457.63;5064045;28;45280;-55
2022/05/16 07:40:55;;;;;;;;;13.00;11.00;;;;;21.23;58.19;101460.03;5061923;28;45260;-56
2022/05/16 07:43:22;;;;;;;;;18.75;12.50;;;;;21.25;58.09;101460.75;5063554;28;45258;-55
2022/05/16 07:45:47;;;;;;;;;8.50;8.50;;;;;21.29;57.64;101456.81;5068887;28;45379;-56
2022/05/16 07:48:13;;;;;;;;;14.50;10.00;;;;;21.34;57.84;101464.44;5063591;28;45523;-56
2022/05/16 07:50:40;;;;;;;;;13.50;10.25;;;;;21.40;57.74;101467.38;5067735;28;45369;-55
2022/05/16 07:53:11;;;;;;;;;25.00;22.50;;;;;21.43;57.39;101475.13;5049885;28;45331;-55
2022/05/16 07:55:41;;;;;;;;;18.75;11.50;;;;;21.46;57.53;101463.28;5066771;28;45176;-55
2022/05/16 07:58:07;;;;;;;;;12.75;10.75;;;;;21.48;57.35;101466.66;5063374;28;45261;-55
2022/05/16 08:00:33;;;;;;;;;8.00;7.00;;;;;21.45;56.85;101473.16;5065523;28;46359;-52
2022/05/16 08:02:59;;;;;;;;;12.25;11.00;;;;;21.41;56.58;101470.91;5063429;28;45363;-54
2022/05/16 08:05:25;;;;;;;;;9.00;7.75;;;;;21.41;56.70;101474.44;5063380;28;45303;-56
2022/05/16 08:10:39;;;;;;;;;11.75;10.50;;;;;21.50;56.70;101487.97;5062676;28;45705;-54
2022/05/16 08:13:07;;;;;;;;;8.50;8.25;;;;;21.49;56.46;101488.94;5062805;28;45368;-56
2022/05/16 08:15:34;;;;;;;;;10.50;9.50;;;;;21.49;56.65;101487.13;5062580;28;45169;-55
2022/05/16 08:18:02;;;;;;;;;8.75;8.75;;;;;21.51;55.83;101490.50;5062848;28;45466;-55
2022/05/16 08:20:29;;;;;;;;;9.25;9.00;;;;;21.51;56.28;101492.34;5065309;28;45391;-55
2022/05/16 08:22:55;;;;;;;;;9.00;7.00;;;;;21.51;55.96;101490.50;5071320;28;45256;-55
2022/05/16 08:25:21;;;;;;;;;12.25;8.50;;;;;21.56;56.14;101495.41;5070895;28;46423;-56
2022/05/16 08:27:50;;;;;;;;;8.50;8.25;;;;;21.63;56.42;101496.53;5072492;28;45471;-55
2022/05/16 08:30:16;;;;;;;;;11.00;10.00;;;;;21.69;56.10;101502.19;5072834;27;45409;-55
2022/05/16 08:32:42;;;;;;;;;14.50;10.75;;;;;21.76;55.63;101501.59;5067148;28;45248;-56
2022/05/16 08:35:09;;;;;;;;;16.50;11.75;;;;;21.77;55.88;101503.28;5061348;28;45331;-48
2022/05/16 08:40:21;;;;;;;;;11.75;10.00;;;;;21.77;55.58;101501.44;5062544;28;45852;-48
2022/05/16 08:43:03;;;;;;;;;9.25;8.25;;;;;21.80;55.53;101509.19;5062646;28;45417;-52
2022/05/16 08:45:36;;;;;;;;;8.50;7.50;;;;;21.83;55.10;101508.94;5062346;28;45306;-50
2022/05/16 08:48:21;;;;;;;;;12.25;8.50;;;;;21.86;55.35;101505.09;5062689;28;45164;-53
2022/05/16 08:51:08;;;;;;;;;6.75;6.75;;;;;21.90;55.17;101507.34;5061055;28;45887;-51
2022/05/16 08:53:36;;;;;;;;;9.00;8.50;;;;;21.94;54.74;101514.09;5062094;28;45493;-50
2022/05/16 08:56:07;;;;;;;;;15.25;8.00;;;;;22.00;54.83;101510.84;5062263;28;45329;-49
2022/05/16 08:59:08;;;;;;;;;8.25;8.25;;;;;22.09;54.82;101513.66;5062136;28;45387;-52
2022/05/16 09:01:52;;;;;;;;;10.75;10.00;;;;;22.14;54.78;101516.78;5060499;28;46051;-53
2022/05/16 09:04:24;;;;;;;;;11.00;10.00;;;;;22.20;54.50;101521.56;5062301;28;45433;-49
2022/05/16 09:07:09;;;;;;;;;9.50;7.75;;;;;22.25;54.59;101527.31;5061109;28;45264;-49
2022/05/16 09:10:00;;;;;;;;;10.25;7.25;;;;;22.23;54.06;101529.31;5062532;28;45422;-48
2022/05/16 09:12:37;;;;;;;;;9.00;6.75;;;;;22.16;53.87;101537.09;5062129;28;45272;-50
2022/05/16 09:15:10;;;;;;;;;6.75;5.75;;;;;22.10;53.95;101544.88;5061857;28;45417;-48
2022/05/16 09:18:12;;;;;;;;;9.50;7.50;;;;;22.08;54.36;101544.19;5062454;28;45339;-49
2022/05/16 09:21:17;;;;;;;;;8.75;7.75;;;;;22.03;54.19;101548.09;5062118;28;45515;-49
2022/05/16 09:24:07;;;;;;;;;8.75;8.75;;;;;22.01;54.22;101546.56;5061471;28;46209;-51
2022/05/16 09:27:10;;;;;;;;;11.00;8.25;;;;;21.99;54.27;101554.75;5061816;28;45342;-52
2022/05/16 09:29:45;;;;;;;;;8.50;8.50;;;;;21.98;54.52;101555.75;5061846;28;45211;-52
2022/05/16 09:32:33;;;;;;;;;7.50;6.50;;;;;22.00;54.07;101560.97;5061839;28;45437;-51
2022/05/16 09:34:59;;;;;;;;;6.50;6.50;;;;;22.02;54.01;101559.00;5061787;28;45263;-49
2022/05/16 09:37:25;;;;;;;;;6.50;5.75;;;;;22.01;53.63;101570.72;5061824;28;45354;-49
2022/05/16 09:39:53;;;;;;;;;11.00;7.00;;;;;22.03;53.89;101566.88;5061335;28;45386;-49
2022/05/16 09:42:31;;;;;;;;;8.25;7.75;;;;;22.12;53.78;101564.34;5060609;28;45553;-50
2022/05/16 09:44:57;;;;;;;;;8.75;8.00;;;;;22.24;53.67;101568.56;5061664;28;45418;-49
2022/05/16 09:47:29;;;;;;;;;8.25;6.75;;;;;22.31;53.83;101567.00;5061652;28;45358;-52
2022/05/16 09:50:07;;;;;;;;;10.00;9.00;;;;;22.41;53.73;101575.84;5061617;28;45223;-48
2022/05/16 09:52:36;;;;;;;;;10.75;7.75;;;;;22.53;53.12;101572.00;5061035;28;45338;-49
2022/05/16 09:55:08;;;;;;;;;9.25;7.25;;;;;22.63;53.74;101580.00;5061096;28;45432;-48
2022/05/16 09:58:01;;;;;;;;;9.75;8.75;;;;;22.69;52.76;101589.31;5060948;28;45326;-49
2022/05/16 10:00:42;;;;;;;;;9.50;8.00;;;;;22.77;52.95;101578.66;5059889;28;45264;-51
2022/05/16 10:03:29;;;;;;;;;9.25;6.00;;;;;22.86;52.24;101588.53;5061682;28;45284;-49
2022/05/16 10:05:57;;;;;;;;;7.50;7.50;;;;;22.94;51.95;101579.72;5061259;28;45947;-49
2022/05/16 10:08:31;;;;;;;;;7.00;6.00;;;;;23.04;52.11;101586.72;5061308;28;45350;-47
2022/05/16 10:11:00;;;;;;;;;5.75;5.00;;;;;23.10;51.82;101590.66;5061110;28;45246;-50
2022/05/16 10:13:26;;;;;;;;;9.00;7.75;;;;;23.10;51.81;101586.13;5061471;28;45365;-49
2022/05/16 10:15:56;;;;;;;;;8.00;7.00;;;;;23.16;51.53;101586.50;5060637;28;45374;-49
2022/05/16 10:18:24;;;;;;;;;6.00;6.00;;;;;23.23;51.89;101593.81;5061212;28;45269;-49
2022/05/16 10:21:03;;;;;;;;;8.50;7.50;;;;;23.36;51.51;101599.63;5060940;28;45342;-49
2022/05/16 10:23:39;;;;;;;;;8.00;7.00;;;;;23.38;50.86;101600.34;5060600;28;45511;-48
2022/05/16 10:26:09;;;;;;;;;10.50;7.75;;;;;23.36;51.02;101601.50;5060613;28;45493;-48
2022/05/16 10:29:02;;;;;;;;;10.25;8.00;;;;;23.44;51.15;101604.25;5060266;28;45484;-53
2022/05/16 10:34:37;;;;;;;;;9.00;8.00;;;;;23.58;50.88;101598.34;5060721;28;45325;-52
2022/05/16 10:37:05;;;;;;;;;8.50;7.75;;;;;23.68;50.78;101595.59;5060474;28;45748;-50
2022/05/16 10:39:31;;;;;;;;;7.25;6.75;;;;;23.64;50.90;101595.06;5061469;28;45469;-52
2022/05/16 10:42:06;;;;;;;;;9.25;8.00;;;;;23.75;50.83;101595.81;5060494;28;45290;-56
2022/05/16 10:44:50;;;;;;;;;10.50;8.00;;;;;23.85;50.41;101597.41;5059957;28;45424;-50
2022/05/16 10:47:28;;;;;;;;;8.25;7.75;;;;;23.85;49.77;101592.03;5060496;28;45423;-50
2022/05/16 10:50:00;;;;;;;;;8.00;6.00;;;;;23.80;50.15;101593.50;5060630;28;45432;-52
2022/05/16 10:52:29;;;;;;;;;6.75;6.00;;;;;23.73;49.93;101593.28;5060482;28;45181;-48
2022/05/16 10:54:55;;;;;;;;;7.75;6.00;;;;;23.68;49.41;101593.75;5060439;28;45481;-48
2022/05/16 10:57:27;;;;;;;;;7.50;6.00;;;;;23.74;49.16;101586.91;5060487;28;45433;-53
2022/05/16 11:00:06;;;;;;;;;5.00;5.00;;;;;23.88;48.53;101589.03;5060406;28;45469;-49
2022/05/16 11:02:59;;;;;;;;;8.00;6.00;;;;;23.94;48.91;101591.09;5060427;28;45317;-52
2022/05/16 11:05:39;;;;;;;;;12.25;8.00;;;;;23.95;49.08;101603.56;5060413;28;45315;-48
2022/05/16 11:08:26;;;;;;;;;7.75;5.25;;;;;23.91;48.93;101598.63;5059708;28;45264;-52
2022/05/16 11:10:58;;;;;;;;;8.00;7.00;;;;;23.99;48.07;101597.84;5059661;28;45240;-49
2022/05/16 11:13:42;;;;;;;;;6.25;5.00;;;;;24.09;48.35;101590.50;5060289;28;45347;-51
2022/05/16 11:16:15;;;;;;;;;5.00;3.75;;;;;24.16;47.74;101588.88;5060774;28;45370;-50
2022/05/16 11:19:13;;;;;;;;;7.25;6.00;;;;;24.32;47.55;101583.63;5060314;28;46242;-52
2022/05/16 11:22:06;;;;;;;;;9.75;7.25;;;;;24.49;47.55;101585.41;5059874;28;45277;-51
2022/05/16 11:24:37;;;;;;;;;9.75;6.75;;;;;24.67;48.18;101588.00;5060630;28;45260;-48
2022/05/16 11:27:11;;;;;;;;;8.00;7.25;;;;;24.78;47.90;101590.41;5060217;28;45345;-49
2022/05/16 11:29:57;;;;;;;;;4.50;4.50;;;;;24.78;46.50;101590.41;5059995;28;46162;-50
2022/05/16 11:32:22;;;;;;;;;5.25;5.25;;;;;24.65;46.51;101595.41;5059879;28;45405;-52
2022/05/16 11:35:06;;;;;;;;;8.00;7.00;;;;;24.47;47.08;101590.09;5060456;28;45481;-50
2022/05/16 11:37:54;;;;;;;;;7.75;5.00;;;;;24.50;46.68;101589.78;5060591;28;45213;-51
2022/05/16 11:40:39;;;;;;;;;6.00;6.00;;;;;24.69;46.47;101593.22;5037266;28;46048;-48
2022/05/16 11:43:17;;;;;;;;;4.00;2.75;;;;;24.83;45.39;101584.53;5059852;28;45331;-50
2022/05/16 11:46:01;;;;;;;;;5.00;5.00;;;;;24.97;45.46;101574.97;5059956;28;45305;-51
2022/05/16 11:48:57;;;;;;;;;6.00;4.25;;;;;25.08;45.31;101574.69;5060280;28;45301;-51
2022/05/16 11:51:49;;;;;;;;;7.75;3.00;;;;;25.21;45.46;101579.63;5059977;28;45216;-48
2022/05/16 11:54:19;;;;;;;;;6.00;4.25;;;;;25.32;44.31;101582.81;5056923;28;45421;-51
2022/05/16 12:00:31;;;;;;;;;4.00;3.00;;;;;25.33;43.94;101568.31;5059463;28;45318;-50
2022/05/16 12:03:06;;;;;;;;;4.00;4.00;;;;;25.41;44.40;101561.25;5060050;28;45382;-52
2022/05/16 12:05:43;;;;;;;;;2.00;2.00;;;;;25.53;44.29;101560.75;5063247;28;45424;-49